Time;durP1;ratioP1;P1;durP2;ratioP2;P2;SDS_P1;SDS_P2;PMS_P1;PMS_P2;Temp;Humidity;BMP_temperature;BMP_pressure;BME280_temperature;BME280_humidity;BME280_pressure;Samples;Min_cycle;Max_cycle;Signal;HPM_P1;HPM_P2
2022/07/26 00:02:12;;;;;;;3.80;2.10;;;;;;;18.98;60.54;99436.63;5029395;28;20060;-69
2022/07/26 00:04:39;;;;;;;3.47;1.80;;;;;;;18.97;60.64;99445.59;5028561;28;20079;-70
2022/07/26 00:07:06;;;;;;;2.88;1.73;;;;;;;18.97;60.50;99441.09;5028819;28;20053;-69
2022/07/26 00:09:33;;;;;;;6.40;2.25;;;;;;;18.95;60.77;99440.41;5028774;28;20053;-70
2022/07/26 00:11:59;;;;;;;4.93;2.22;;;;;;;18.87;61.17;99435.72;5029617;28;20049;-69
2022/07/26 00:14:26;;;;;;;3.85;1.50;;;;;;;18.83;61.28;99441.50;5028521;28;20064;-69
2022/07/26 00:16:52;;;;;;;5.72;2.05;;;;;;;18.77;61.53;99437.53;5028867;28;20053;-69
2022/07/26 00:19:19;;;;;;;7.47;2.83;;;;;;;18.75;61.63;99435.94;5028470;28;20052;-69
2022/07/26 00:21:47;;;;;;;4.15;1.60;;;;;;;18.74;61.66;99436.94;5027570;28;20076;-69
2022/07/26 00:24:13;;;;;;;6.28;2.50;;;;;;;18.72;61.83;99439.75;5013583;28;20072;-69
2022/07/26 00:26:40;;;;;;;13.45;2.85;;;;;;;18.71;62.05;99439.88;5028937;28;20053;-69
2022/07/26 00:29:07;;;;;;;7.57;2.72;;;;;;;18.67;62.04;99434.78;5029013;28;20053;-69
2022/07/26 00:31:33;;;;;;;5.88;2.30;;;;;;;18.62;62.22;99434.38;5028891;28;20050;-69
2022/07/26 00:34:00;;;;;;;5.45;2.17;;;;;;;18.57;62.34;99422.41;5028247;28;20103;-69
2022/07/26 00:36:28;;;;;;;8.40;3.65;;;;;;;18.54;62.51;99431.53;5028856;28;20049;-69
2022/07/26 00:38:56;;;;;;;5.25;2.25;;;;;;;18.53;62.71;99429.00;5028544;28;20049;-69
2022/07/26 00:41:22;;;;;;;6.97;2.22;;;;;;;18.48;62.80;99429.38;5028898;28;20056;-68
2022/07/26 00:43:57;;;;;;;9.18;3.05;;;;;;;18.44;62.96;99434.16;5028732;28;20883;-68
2022/07/26 00:46:24;;;;;;;7.50;2.42;;;;;;;18.39;63.10;99435.56;5028358;28;20049;-69
2022/07/26 00:48:51;;;;;;;14.90;2.88;;;;;;;18.37;63.37;99438.34;5028607;28;20155;-69
2022/07/26 00:51:17;;;;;;;5.20;2.30;;;;;;;18.36;63.03;99439.34;5028491;28;20046;-69
2022/07/26 00:53:45;;;;;;;6.63;2.40;;;;;;;18.36;63.33;99431.34;5028618;28;20045;-69
2022/07/26 00:56:15;;;;;;;6.55;2.88;;;;;;;18.36;63.11;99439.34;5027628;28;20526;-69
2022/07/26 00:58:42;;;;;;;8.25;3.22;;;;;;;18.31;63.54;99441.56;5028688;28;20041;-69
2022/07/26 01:01:09;;;;;;;8.43;2.90;;;;;;;18.30;63.49;99442.53;5028420;28;20049;-69
2022/07/26 01:03:35;;;;;;;7.05;2.28;;;;;;;18.28;63.68;99444.47;5028361;28;20055;-69
2022/07/26 01:06:02;;;;;;;8.63;1.95;;;;;;;18.26;63.79;99443.75;5027535;28;20677;-69
2022/07/26 01:08:29;;;;;;;6.15;2.65;;;;;;;18.27;63.71;99449.97;5028330;28;20057;-69
2022/07/26 01:10:56;;;;;;;10.15;3.03;;;;;;;18.24;63.87;99441.25;5028185;28;20042;-69
2022/07/26 01:13:23;;;;;;;11.63;2.58;;;;;;;18.24;64.10;99446.59;5028138;28;20050;-69
2022/07/26 01:15:50;;;;;;;6.57;2.20;;;;;;;18.21;64.17;99443.31;5024462;28;20451;-69
2022/07/26 01:18:17;;;;;;;6.10;2.70;;;;;;;18.18;64.04;99444.44;5028126;28;20045;-69
2022/07/26 01:20:44;;;;;;;9.43;2.67;;;;;;;18.18;64.27;99439.09;5027872;28;20052;-69
2022/07/26 01:23:12;;;;;;;5.63;2.25;;;;;;;18.17;64.49;99439.25;5027933;28;20064;-69
2022/07/26 01:25:39;;;;;;;9.70;2.65;;;;;;;18.10;64.77;99444.25;5027633;28;20057;-69
2022/07/26 01:28:05;;;;;;;10.65;2.75;;;;;;;18.09;65.13;99444.38;5028045;28;20424;-69
2022/07/26 01:30:32;;;;;;;8.68;2.90;;;;;;;18.07;64.81;99438.34;5028019;28;20732;-69
2022/07/26 01:32:59;;;;;;;9.23;2.40;;;;;;;18.07;64.92;99444.53;5028499;28;20526;-69
2022/07/26 01:35:25;;;;;;;7.32;2.30;;;;;;;18.07;65.27;99439.19;5028651;28;20489;-68
2022/07/26 01:37:52;;;;;;;9.00;2.97;;;;;;;18.05;65.28;99437.63;5031849;28;20144;-68
2022/07/26 01:40:20;;;;;;;9.25;3.53;;;;;;;18.06;65.28;99439.31;5031783;28;20049;-68
2022/07/26 01:42:47;;;;;;;6.72;2.20;;;;;;;18.08;65.36;99435.53;5031795;28;20053;-68
2022/07/26 01:45:14;;;;;;;6.30;2.40;;;;;;;18.11;65.18;99440.59;5031428;28;20057;-68
2022/07/26 01:47:40;;;;;;;7.80;2.53;;;;;;;18.09;65.50;99437.25;5031625;28;20492;-70
2022/07/26 01:50:08;;;;;;;10.02;2.60;;;;;;;18.10;65.51;99438.91;5031660;28;20045;-69
2022/07/26 01:52:36;;;;;;;5.53;2.63;;;;;;;18.09;65.80;99439.91;5031471;28;20057;-70
2022/07/26 01:55:03;;;;;;;6.03;2.42;;;;;;;18.07;66.07;99444.53;5030592;28;20045;-68
2022/07/26 01:57:31;;;;;;;7.13;2.40;;;;;;;18.08;65.79;99448.88;5031825;28;20052;-70
2022/07/26 01:59:57;;;;;;;11.38;3.47;;;;;;;18.08;65.77;99448.88;5032449;28;20042;-68
2022/07/26 02:02:24;;;;;;;12.93;5.35;;;;;;;18.08;65.92;99440.03;5032138;28;20049;-69
2022/07/26 02:05:00;;;;;;;9.80;4.10;;;;;;;18.12;65.76;99447.66;5031528;28;20156;-69
2022/07/26 02:07:27;;;;;;;5.43;2.30;;;;;;;18.12;65.64;99447.66;5032014;28;20057;-68
2022/07/26 02:09:54;;;;;;;10.05;2.97;;;;;;;18.17;65.71;99447.25;5032297;28;20053;-69
2022/07/26 02:12:20;;;;;;;4.40;2.15;;;;;;;18.21;65.50;99445.97;5032026;28;20711;-69
2022/07/26 02:14:49;;;;;;;6.72;2.80;;;;;;;18.23;65.48;99454.72;5031287;28;20050;-69
2022/07/26 02:17:15;;;;;;;7.95;2.42;;;;;;;18.21;65.62;99448.66;5031181;28;20045;-68
2022/07/26 02:19:42;;;;;;;5.30;2.75;;;;;;;18.14;65.69;99451.03;5018994;28;20497;-69
2022/07/26 02:22:09;;;;;;;6.28;2.95;;;;;;;18.07;66.15;99441.84;5011257;28;20054;-68
2022/07/26 02:24:36;;;;;;;7.47;2.40;;;;;;;18.06;66.16;99445.50;5010746;28;20054;-69
2022/07/26 02:27:03;;;;;;;10.30;3.13;;;;;;;18.06;66.21;99448.16;5011265;28;20461;-69
2022/07/26 02:29:30;;;;;;;11.57;3.30;;;;;;;18.06;66.22;99448.16;5011485;28;20060;-69
2022/07/26 02:31:59;;;;;;;8.05;2.85;;;;;;;18.02;66.40;99449.41;5011476;28;20085;-69
2022/07/26 02:34:25;;;;;;;9.27;2.75;;;;;;;17.97;66.75;99457.81;5011202;28;20125;-69
2022/07/26 02:36:52;;;;;;;10.68;2.38;;;;;;;17.95;66.56;99459.75;5011427;28;20125;-69
2022/07/26 02:39:19;;;;;;;8.43;3.15;;;;;;;17.96;66.59;99468.59;5011024;28;20096;-69
2022/07/26 02:41:46;;;;;;;5.88;2.78;;;;;;;17.93;66.85;99464.38;5010917;28;20521;-68
2022/07/26 02:44:12;;;;;;;8.48;2.45;;;;;;;17.91;67.17;99463.66;5010427;28;20041;-69
2022/07/26 02:46:39;;;;;;;3.97;2.28;;;;;;;17.90;67.32;99471.78;5016344;28;20129;-69
2022/07/26 02:49:07;;;;;;;15.18;3.53;;;;;;;17.93;67.23;99468.88;5030227;28;20057;-69
2022/07/26 02:51:34;;;;;;;8.20;2.90;;;;;;;17.91;67.45;99465.47;5030336;28;20132;-69
2022/07/26 02:54:00;;;;;;;9.95;2.92;;;;;;;17.93;67.87;99479.53;5029848;28;20601;-69
2022/07/26 02:56:27;;;;;;;6.20;2.63;;;;;;;17.95;67.45;99466.91;5013840;28;20607;-68
2022/07/26 02:58:53;;;;;;;7.78;3.08;;;;;;;17.96;67.51;99469.44;5010549;28;20053;-67
2022/07/26 03:01:20;;;;;;;7.32;3.20;;;;;;;17.99;67.16;99466.53;5010356;28;20679;-68
2022/07/26 03:03:47;;;;;;;7.72;3.33;;;;;;;18.01;67.33;99459.22;5010252;28;20050;-67
2022/07/26 03:06:15;;;;;;;9.90;3.38;;;;;;;17.96;67.64;99468.59;5009644;28;20050;-67
2022/07/26 03:08:41;;;;;;;7.28;3.25;;;;;;;17.89;67.73;99465.59;5011737;28;20054;-68
2022/07/26 03:11:08;;;;;;;16.27;3.60;;;;;;;17.81;68.39;99468.06;5029571;28;20060;-68
2022/07/26 03:13:35;;;;;;;13.65;3.60;;;;;;;17.78;68.23;99468.31;5030089;28;20431;-67
2022/07/26 03:16:01;;;;;;;11.68;4.38;;;;;;;17.77;68.60;99471.94;5029348;28;20059;-68
2022/07/26 03:18:28;;;;;;;9.70;3.33;;;;;;;17.76;68.67;99480.91;5024155;28;20046;-67
2022/07/26 03:20:55;;;;;;;14.45;4.07;;;;;;;17.71;68.99;99470.63;5009945;28;20068;-68
2022/07/26 03:23:23;;;;;;;13.65;4.28;;;;;;;17.71;69.27;99472.47;5010066;28;20100;-68
2022/07/26 03:25:49;;;;;;;7.65;3.15;;;;;;;17.77;68.85;99478.13;5009752;28;20050;-67
2022/07/26 03:28:16;;;;;;;10.95;3.13;;;;;;;17.83;68.82;99479.47;5010196;28;20054;-69
2022/07/26 03:30:43;;;;;;;13.13;4.38;;;;;;;17.80;69.08;99475.22;5010012;28;20058;-68
2022/07/26 03:33:09;;;;;;;9.57;3.58;;;;;;;17.80;69.04;99472.56;5009763;28;20137;-68
2022/07/26 03:35:36;;;;;;;10.15;4.03;;;;;;;17.73;69.43;99478.50;5009385;28;20046;-68
2022/07/26 03:38:03;;;;;;;16.63;3.85;;;;;;;17.73;69.73;99481.19;5009802;28;20567;-68
2022/07/26 03:40:31;;;;;;;10.15;3.67;;;;;;;17.72;69.60;99487.47;5009734;28;20127;-68
2022/07/26 03:42:57;;;;;;;8.88;3.35;;;;;;;17.71;70.07;99483.97;5009813;28;20050;-68
2022/07/26 03:45:24;;;;;;;13.63;5.20;;;;;;;17.74;69.64;99483.69;5008940;28;20049;-68
2022/07/26 03:47:52;;;;;;;9.73;4.70;;;;;;;17.77;70.22;99485.25;5009539;28;20057;-69
2022/07/26 03:50:18;;;;;;;8.82;3.50;;;;;;;17.80;69.98;99483.22;5009378;28;20057;-69
2022/07/26 03:52:45;;;;;;;10.18;3.97;;;;;;;17.80;69.89;99482.41;5009789;28;20409;-69
2022/07/26 03:57:57;;;;;;;12.35;3.75;;;;;;;17.76;70.36;99487.09;5011055;28;20722;-69
2022/07/26 04:00:24;;;;;;;11.40;4.72;;;;;;;17.70;70.50;99495.63;5009782;28;20046;-69
2022/07/26 04:02:51;;;;;;;14.63;5.47;;;;;;;17.68;70.66;99497.56;5011503;28;20132;-69
2022/07/26 04:05:17;;;;;;;11.00;4.72;;;;;;;17.68;70.74;99497.56;5009441;28;20056;-69
2022/07/26 04:07:45;;;;;;;10.50;3.90;;;;;;;17.67;70.82;99500.34;5025249;28;20056;-69
2022/07/26 04:10:14;;;;;;;15.05;5.45;;;;;;;17.63;71.25;99502.44;5028523;28;20049;-69
2022/07/26 04:12:41;;;;;;;14.48;3.83;;;;;;;17.65;71.52;99504.97;5026486;28;20092;-68
2022/07/26 04:15:10;;;;;;;20.90;4.47;;;;;;;17.64;71.47;99498.78;5028819;28;20053;-68
2022/07/26 04:17:38;;;;;;;11.63;3.90;;;;;;;17.67;71.38;99506.53;5029243;28;20099;-68
2022/07/26 04:20:06;;;;;;;7.22;3.25;;;;;;;17.73;71.42;99503.34;5028901;28;20064;-68
2022/07/26 04:22:33;;;;;;;15.02;5.63;;;;;;;17.77;71.30;99510.13;5029024;28;20149;-68
2022/07/26 04:25:00;;;;;;;8.45;3.85;;;;;;;17.81;71.18;99510.75;5028096;28;20045;-68
2022/07/26 04:27:26;;;;;;;8.27;3.75;;;;;;;17.81;71.10;99503.56;5028837;28;20060;-69
2022/07/26 04:29:53;;;;;;;8.75;4.43;;;;;;;17.85;70.55;99506.84;5029033;28;20436;-68
2022/07/26 04:32:21;;;;;;;15.75;6.38;;;;;;;17.88;71.14;99503.06;5028764;28;20054;-68
2022/07/26 04:34:48;;;;;;;12.10;5.55;;;;;;;17.90;70.75;99506.47;5028254;28;20534;-68
2022/07/26 04:37:14;;;;;;;12.57;4.45;;;;;;;17.89;70.93;99507.41;5028721;28;20056;-68
2022/07/26 04:39:41;;;;;;;19.52;6.60;;;;;;;17.90;71.69;99514.47;5028148;28;20053;-68
2022/07/26 04:42:08;;;;;;;18.33;5.65;;;;;;;17.81;71.92;99516.06;5029026;28;20049;-68
2022/07/26 04:44:34;;;;;;;17.23;5.43;;;;;;;17.83;72.08;99508.78;5028321;28;20049;-68
2022/07/26 04:47:01;;;;;;;14.00;5.25;;;;;;;17.85;71.99;99506.00;5029286;28;20132;-70
2022/07/26 04:49:29;;;;;;;8.85;4.97;;;;;;;17.85;71.85;99512.19;5029040;28;20324;-69
2022/07/26 04:51:55;;;;;;;20.23;5.75;;;;;;;17.81;71.76;99513.41;5029527;28;20045;-69
2022/07/26 04:54:22;;;;;;;13.52;5.22;;;;;;;17.75;72.02;99511.22;5028680;28;20087;-68
2022/07/26 04:56:49;;;;;;;21.17;7.45;;;;;;;17.79;72.11;99516.19;5009846;28;20572;-69
2022/07/26 04:59:16;;;;;;;12.23;4.63;;;;;;;17.84;71.79;99521.13;5009083;28;20058;-68
2022/07/26 05:01:42;;;;;;;14.43;5.88;;;;;;;17.87;71.66;99520.91;5032905;28;20041;-69
2022/07/26 05:04:09;;;;;;;10.43;4.90;;;;;;;17.93;71.60;99520.38;5025562;28;20046;-69
2022/07/26 05:06:37;;;;;;;19.95;6.15;;;;;;;17.99;71.58;99521.66;5029145;28;20820;-69
2022/07/26 05:09:04;;;;;;;19.60;6.45;;;;;;;17.93;71.84;99522.19;5024338;28;20128;-69
2022/07/26 05:11:31;;;;;;;15.23;6.38;;;;;;;17.87;71.89;99520.03;5013079;28;20056;-69
2022/07/26 05:13:57;;;;;;;19.05;6.22;;;;;;;17.93;72.05;99524.88;5013079;28;20073;-70
2022/07/26 05:16:24;;;;;;;16.33;5.80;;;;;;;17.96;72.00;99516.59;5012825;28;20513;-69
2022/07/26 05:18:50;;;;;;;15.43;7.03;;;;;;;17.96;72.03;99529.94;5013341;28;20045;-69
2022/07/26 05:21:18;;;;;;;20.50;5.93;;;;;;;17.94;72.04;99529.22;5013019;28;20473;-69
2022/07/26 05:23:46;;;;;;;15.75;5.57;;;;;;;17.98;71.94;99528.00;5013746;28;20060;-69
2022/07/26 05:26:13;;;;;;;17.15;6.63;;;;;;;17.94;72.21;99531.88;5012279;28;20085;-68
2022/07/26 05:28:40;;;;;;;18.10;6.25;;;;;;;17.93;72.19;99525.72;5013423;28;20537;-67
2022/07/26 05:31:07;;;;;;;16.88;7.32;;;;;;;17.92;72.36;99526.69;5013152;28;20058;-70
2022/07/26 05:33:33;;;;;;;12.68;7.72;;;;;;;17.89;72.75;99528.75;5012707;28;20057;-69
2022/07/26 05:36:00;;;;;;;14.15;6.75;;;;;;;17.92;72.57;99517.84;5011187;28;20045;-68
2022/07/26 05:38:26;;;;;;;17.15;6.50;;;;;;;17.91;72.58;99519.66;5011888;28;20079;-69
2022/07/26 05:40:55;;;;;;;12.20;6.28;;;;;;;17.92;72.80;99523.19;5011847;28;20052;-69
2022/07/26 05:43:21;;;;;;;13.32;7.05;;;;;;;17.93;72.75;99520.38;5012169;28;20050;-68
2022/07/26 05:45:48;;;;;;;15.82;7.05;;;;;;;17.93;72.74;99520.38;5011079;28;20053;-70
2022/07/26 05:48:14;;;;;;;16.15;7.68;;;;;;;17.93;72.76;99522.19;5011678;28;20052;-69
2022/07/26 05:50:41;;;;;;;17.42;6.20;;;;;;;17.95;73.04;99530.94;5011644;28;20056;-69
2022/07/26 05:53:08;;;;;;;15.23;7.35;;;;;;;17.98;72.66;99528.00;5011951;28;20089;-70
2022/07/26 05:55:34;;;;;;;13.77;6.55;;;;;;;18.05;72.46;99529.16;5010783;28;20069;-68
2022/07/26 05:58:02;;;;;;;26.33;7.85;;;;;;;18.11;72.05;99536.63;5011858;28;20057;-69
2022/07/26 06:00:29;;;;;;;21.00;7.85;;;;;;;18.17;72.08;99530.81;5029435;28;20053;-69
2022/07/26 06:02:55;;;;;;;16.75;7.78;;;;;;;18.13;71.89;99540.03;5042240;28;20045;-69
2022/07/26 06:05:22;;;;;;;21.85;8.23;;;;;;;18.12;72.24;99534.84;5050530;28;20500;-70
2022/07/26 06:07:49;;;;;;;17.15;7.90;;;;;;;18.16;71.99;99530.91;5051337;28;20522;-69
2022/07/26 06:10:15;;;;;;;20.92;8.23;;;;;;;18.17;72.11;99536.13;5032972;28;20055;-69
2022/07/26 06:12:42;;;;;;;24.67;8.50;;;;;;;18.23;72.09;99540.09;5031233;28;20049;-69
2022/07/26 06:15:10;;;;;;;17.95;8.13;;;;;;;18.21;72.09;99534.91;5030753;28;20052;-69
2022/07/26 06:17:40;;;;;;;16.48;9.05;;;;;;;18.22;72.13;99533.91;5031089;28;20133;-69
2022/07/26 06:20:08;;;;;;;16.33;9.20;;;;;;;18.22;72.08;99547.25;5030878;28;20046;-70
2022/07/26 06:22:50;;;;;;;27.00;9.35;;;;;;;18.14;72.24;99548.88;5007064;28;20509;-69
2022/07/26 06:25:17;;;;;;;18.13;8.30;;;;;;;18.18;72.37;99555.66;5030086;28;20152;-69
2022/07/26 06:27:43;;;;;;;18.65;8.40;;;;;;;18.24;72.17;99558.66;5030893;28;20060;-69
2022/07/26 06:30:12;;;;;;;19.77;8.45;;;;;;;18.30;72.13;99549.28;5030274;28;20050;-69
2022/07/26 06:32:43;;;;;;;17.27;8.15;;;;;;;18.27;72.10;99554.88;5030959;28;20050;-70
2022/07/26 06:35:09;;;;;;;17.27;8.95;;;;;;;18.27;72.16;99554.03;5036221;28;20126;-69
2022/07/26 06:37:37;;;;;;;19.85;10.50;;;;;;;18.24;72.76;99566.66;5040552;28;20076;-69
2022/07/26 06:40:04;;;;;;;21.23;9.82;;;;;;;18.27;72.52;99562.06;5040853;28;20045;-70
2022/07/26 06:42:32;;;;;;;19.67;10.68;;;;;;;18.26;73.21;99569.19;5034231;28;20137;-70
2022/07/26 06:44:58;;;;;;;18.67;10.25;;;;;;;18.28;74.03;99574.41;5037738;28;20518;-70
2022/07/26 06:47:27;;;;;;;19.50;10.02;;;;;;;18.31;73.32;99579.47;5040836;28;20056;-69
2022/07/26 06:49:54;;;;;;;19.52;8.35;;;;;;;18.45;74.00;99576.47;5043527;28;20048;-55
2022/07/26 06:52:20;;;;;;;21.42;10.43;;;;;;;18.77;71.89;99578.25;5040877;28;20046;-52
2022/07/26 06:54:47;;;;;;;23.67;10.68;;;;;;;18.97;70.89;99579.16;5034348;28;25301;-54
2022/07/26 06:57:13;;;;;;;22.02;10.65;;;;;;;19.08;70.32;99574.59;5036735;28;20049;-51
2022/07/26 06:59:40;;;;;;;17.80;9.02;;;;;;;19.15;70.01;99579.38;5033686;28;20046;-55
2022/07/26 07:02:07;;;;;;;17.08;8.57;;;;;;;19.17;69.98;99580.91;5030758;28;20571;-53
2022/07/26 07:04:35;;;;;;;21.73;10.23;;;;;;;19.25;69.61;99577.59;5030529;28;20053;-54
2022/07/26 07:07:03;;;;;;;21.35;9.32;;;;;;;19.22;69.77;99577.84;5030971;28;20136;-56
2022/07/26 07:09:30;;;;;;;17.35;10.90;;;;;;;19.28;69.52;99596.88;5030565;28;20072;-52
2022/07/26 07:11:57;;;;;;;25.23;11.10;;;;;;;19.35;70.19;99591.84;5033096;28;20060;-52
2022/07/26 07:14:23;;;;;;;23.63;10.18;;;;;;;19.44;69.07;99593.69;5030198;28;20053;-54
2022/07/26 07:16:50;;;;;;;21.40;10.20;;;;;;;19.49;68.99;99593.25;5025041;28;20041;-56
2022/07/26 07:19:17;;;;;;;26.02;10.77;;;;;;;19.53;69.16;99594.69;5008750;28;20149;-54
2022/07/26 07:21:45;;;;;;;14.30;9.55;;;;;;;19.63;68.67;99602.72;5008765;28;20515;-49
2022/07/26 07:24:11;;;;;;;26.17;11.27;;;;;;;19.73;67.78;99599.09;5025093;28;20080;-53
2022/07/26 07:26:38;;;;;;;23.45;10.23;;;;;;;19.71;67.54;99608.25;5023466;28;20075;-54
2022/07/26 07:29:04;;;;;;;18.90;10.30;;;;;;;19.72;67.80;99607.28;5025931;28;20052;-55
2022/07/26 07:31:31;;;;;;;17.40;9.20;;;;;;;19.83;67.53;99612.50;5028061;28;20056;-57
2022/07/26 07:33:58;;;;;;;18.48;10.52;;;;;;;19.89;66.99;99605.75;5027767;28;20049;-54
2022/07/26 07:36:24;;;;;;;26.38;11.02;;;;;;;19.95;66.87;99611.38;5043057;28;20048;-56
2022/07/26 07:38:52;;;;;;;23.02;11.20;;;;;;;20.00;66.40;99607.44;5034572;28;20416;-55
2022/07/26 07:41:19;;;;;;;19.10;10.93;;;;;;;20.01;66.57;99607.31;5028336;28;20049;-54
2022/07/26 07:43:45;;;;;;;18.58;11.55;;;;;;;20.07;66.33;99611.25;5025016;28;20041;-49
2022/07/26 07:46:12;;;;;;;18.20;11.23;;;;;;;20.10;66.60;99614.47;5027792;28;20053;-51
2022/07/26 07:48:39;;;;;;;14.15;9.82;;;;;;;20.14;66.38;99618.56;5028019;28;20059;-51
2022/07/26 07:51:06;;;;;;;20.00;11.05;;;;;;;20.15;67.29;99620.25;5027586;28;20124;-54
2022/07/26 07:53:33;;;;;;;17.17;10.82;;;;;;;20.10;67.70;99613.66;5035865;28;20751;-51
2022/07/26 07:56:01;;;;;;;16.70;10.73;;;;;;;20.12;67.74;99617.03;5034463;28;20517;-50
2022/07/26 07:58:28;;;;;;;28.10;11.55;;;;;;;20.08;67.95;99608.44;5027828;28;20428;-55
2022/07/26 08:00:54;;;;;;;17.35;11.07;;;;;;;20.01;68.31;99622.50;5027730;28;20049;-53
2022/07/26 08:03:21;;;;;;;20.88;11.27;;;;;;;19.87;69.48;99623.78;5026529;28;20136;-51
2022/07/26 08:05:48;;;;;;;18.42;12.68;;;;;;;19.83;71.72;99619.69;5015341;28;20133;-51
2022/07/26 08:08:15;;;;;;;21.52;14.43;;;;;;;19.69;72.24;99611.09;5008133;28;20556;-51
2022/07/26 08:10:42;;;;;;;20.67;11.13;;;;;;;19.62;72.70;99617.94;5025805;28;20560;-57
2022/07/26 08:13:10;;;;;;;23.90;15.48;;;;;;;19.55;73.94;99613.28;5027498;28;20037;-56
2022/07/26 08:15:36;;;;;;;17.27;13.07;;;;;;;19.49;74.09;99620.00;5025687;28;20049;-53
2022/07/26 08:18:03;;;;;;;22.30;13.02;;;;;;;19.39;75.33;99625.31;5027787;28;20728;-55
2022/07/26 08:20:30;;;;;;;22.30;13.35;;;;;;;19.46;74.45;99617.59;5024411;28;20049;-56
2022/07/26 08:22:56;;;;;;;17.20;11.57;;;;;;;19.47;74.35;99612.13;5022134;28;20037;-50
2022/07/26 08:25:23;;;;;;;23.10;14.15;;;;;;;19.51;72.92;99610.84;5029131;28;20456;-54
2022/07/26 08:27:49;;;;;;;17.05;11.88;;;;;;;19.47;74.16;99604.09;5020847;28;20136;-56
2022/07/26 08:30:17;;;;;;;22.00;13.07;;;;;;;19.46;73.33;99607.75;5028351;28;20067;-54
2022/07/26 08:32:44;;;;;;;17.90;13.25;;;;;;;19.32;74.69;99610.81;5027984;28;20064;-57
2022/07/26 08:35:12;;;;;;;26.92;15.80;;;;;;;19.18;75.75;99617.38;5028460;28;20056;-55
2022/07/26 08:37:39;;;;;;;16.75;12.15;;;;;;;19.05;77.16;99620.28;5024409;28;20401;-50
2022/07/26 08:40:07;;;;;;;18.00;12.93;;;;;;;19.20;77.95;99620.75;5016611;28;20042;-56
2022/07/26 08:42:34;;;;;;;19.88;11.43;;;;;;;19.31;77.36;99625.16;5012786;28;20041;-55
2022/07/26 08:45:01;;;;;;;20.02;11.02;;;;;;;19.46;75.87;99631.81;5014944;28;20045;-55
2022/07/26 08:47:29;;;;;;;25.45;13.77;;;;;;;19.56;75.43;99623.81;5018410;28;20068;-54
2022/07/26 08:49:56;;;;;;;19.45;12.25;;;;;;;19.67;75.16;99622.88;5026943;28;20055;-57
2022/07/26 08:52:22;;;;;;;22.52;12.18;;;;;;;19.84;74.41;99627.59;5020728;28;20050;-57
2022/07/26 08:54:51;;;;;;;21.48;11.90;;;;;;;19.93;72.74;99629.41;5005958;28;20129;-54
2022/07/26 08:57:18;;;;;;;15.15;10.98;;;;;;;20.05;72.68;99631.94;5009263;28;20471;-53
2022/07/26 08:59:45;;;;;;;16.88;11.40;;;;;;;20.14;71.53;99631.97;5007216;28;20064;-53
2022/07/26 09:02:13;;;;;;;18.58;11.30;;;;;;;20.25;72.55;99622.94;5018150;28;20049;-55
2022/07/26 09:04:43;;;;;;;20.08;10.93;;;;;;;20.36;71.61;99628.16;5017699;28;20076;-53
2022/07/26 09:07:12;;;;;;;21.15;12.57;;;;;;;20.55;71.81;99626.47;5027146;28;20085;-55
2022/07/26 09:09:55;;;;;;;22.25;13.15;;;;;;;20.89;70.79;99626.81;5023463;28;20128;-54
2022/07/26 09:12:23;;;;;;;18.67;12.27;;;;;;;21.42;69.00;99628.06;5007642;28;20046;-54
2022/07/26 09:14:50;;;;;;;26.08;12.13;;;;;;;21.92;67.54;99626.75;5006651;28;20489;-55
2022/07/26 09:17:19;;;;;;;23.00;11.23;;;;;;;22.05;65.44;99621.84;5007594;28;20042;-56
2022/07/26 09:20:03;;;;;;;21.70;12.73;;;;;;;22.67;64.19;99619.22;5006981;28;20050;-50
2022/07/26 09:22:29;;;;;;;19.52;11.90;;;;;;;22.28;64.63;99631.16;5007554;28;20070;-52
2022/07/26 09:24:56;;;;;;;15.57;10.13;;;;;;;22.24;63.74;99620.88;5006979;28;20513;-52
2022/07/26 09:27:22;;;;;;;21.55;11.95;;;;;;;22.17;63.98;99635.88;5007225;28;20114;-51
2022/07/26 09:29:50;;;;;;;22.65;13.35;;;;;;;22.43;64.51;99627.91;5007287;28;20057;-54
2022/07/26 09:32:19;;;;;;;15.55;10.30;;;;;;;22.38;63.36;99631.06;5007638;28;20058;-56
2022/07/26 09:34:50;;;;;;;15.18;9.77;;;;;;;22.88;61.03;99632.25;5023759;28;20060;-51
2022/07/26 09:37:17;;;;;;;16.60;9.55;;;;;;;22.82;59.97;99631.06;5026721;28;20053;-55
2022/07/26 09:39:54;;;;;;;13.15;7.57;;;;;;;22.78;60.50;99632.38;5008427;28;20052;-52
2022/07/26 09:42:22;;;;;;;10.80;8.45;;;;;;;22.65;61.18;99643.53;5006785;28;20042;-51
2022/07/26 09:44:49;;;;;;;11.35;7.65;;;;;;;22.56;60.44;99635.56;5009025;28;20099;-50
2022/07/26 09:47:16;;;;;;;8.18;7.07;;;;;;;22.56;60.12;99640.94;5011353;28;20056;-56
2022/07/26 09:49:42;;;;;;;11.70;6.75;;;;;;;22.49;60.20;99640.72;5026573;28;20059;-50
2022/07/26 09:52:17;;;;;;;16.75;8.43;;;;;;;22.37;60.13;99636.59;5026731;28;20080;-52
2022/07/26 09:54:46;;;;;;;10.27;7.22;;;;;;;22.51;58.73;99638.72;5021659;28;20080;-50
2022/07/26 09:57:16;;;;;;;11.63;7.03;;;;;;;22.47;58.60;99638.22;4979066;28;20073;-69
2022/07/26 09:59:44;;;;;;;12.85;5.93;;;;;;;22.63;59.08;99639.31;4946482;28;20132;-68
2022/07/26 10:02:12;;;;;;;9.65;6.93;;;;;;;22.59;58.04;99646.84;4995954;28;20049;-69
2022/07/26 10:04:39;;;;;;;13.25;6.50;;;;;;;22.51;58.33;99652.16;4961169;28;20076;-69
2022/07/26 10:07:06;;;;;;;8.70;5.60;;;;;;;22.43;57.47;99654.78;4971829;28;20152;-68
2022/07/26 10:09:42;;;;;;;11.68;5.90;;;;;;;22.36;57.90;99659.09;4942722;28;20046;-69
2022/07/26 10:12:12;;;;;;;9.35;5.88;;;;;;;22.30;58.49;99649.81;4943233;28;20092;-69
2022/07/26 10:14:44;;;;;;;11.48;6.47;;;;;;;22.49;57.09;99651.47;4966457;28;20100;-69
2022/07/26 10:17:44;;;;;;;9.40;5.88;;;;;;;22.33;57.88;99654.03;4967526;28;20053;-69
2022/07/26 10:20:26;;;;;;;10.57;5.68;;;;;;;22.28;58.60;99659.88;4941277;28;20060;-70
2022/07/26 10:22:53;;;;;;;17.02;5.88;;;;;;;22.03;57.96;99658.75;4940652;28;20077;-69
2022/07/26 10:25:47;;;;;;;9.48;6.22;;;;;;;21.93;58.51;99664.19;4943634;28;20429;-69
2022/07/26 10:28:25;;;;;;;10.50;6.03;;;;;;;21.82;58.20;99659.03;4944416;28;20080;-69
2022/07/26 10:30:53;;;;;;;10.15;7.20;;;;;;;21.64;59.02;99665.19;4952851;28;20051;-68
2022/07/26 10:33:24;;;;;;;8.70;6.35;;;;;;;21.58;59.46;99667.63;4977265;28;20054;-69
2022/07/26 10:35:50;;;;;;;8.63;6.15;;;;;;;21.44;60.06;99683.22;4957786;28;20056;-68
2022/07/26 10:38:23;;;;;;;10.65;6.80;;;;;;;21.28;61.19;99682.97;4961545;28;20049;-68
2022/07/26 10:40:59;;;;;;;8.85;6.90;;;;;;;21.08;63.34;99700.13;5008402;28;20071;-68
2022/07/26 10:43:27;;;;;;;9.27;6.25;;;;;;;20.77;65.89;99705.66;4984060;28;20475;-67
2022/07/26 10:46:26;;;;;;;13.35;7.68;;;;;;;20.56;67.28;99708.50;4981031;28;20049;-68
2022/07/26 10:48:57;;;;;;;9.73;6.93;;;;;;;20.21;68.01;99701.84;5028814;28;20638;-68
2022/07/26 10:51:26;;;;;;;15.27;6.70;;;;;;;19.99;68.85;99710.13;5028857;28;20053;-68
2022/07/26 10:53:59;;;;;;;17.55;8.38;;;;;;;19.73;71.84;99715.97;5028227;28;20144;-69
2022/07/26 10:56:28;;;;;;;12.23;8.45;;;;;;;19.60;73.31;99712.66;5028434;28;20053;-69
2022/07/26 10:58:56;;;;;;;12.18;8.45;;;;;;;19.55;74.00;99710.38;5027098;28;20551;-68
2022/07/26 11:01:22;;;;;;;15.32;9.82;;;;;;;19.57;74.75;99703.06;5028874;28;20583;-69
2022/07/26 11:03:49;;;;;;;11.32;10.05;;;;;;;19.64;75.94;99706.91;5025220;28;20045;-68
2022/07/26 11:06:17;;;;;;;15.00;9.07;;;;;;;19.71;74.94;99702.75;5024145;28;20053;-67
2022/07/26 11:08:47;;;;;;;16.52;11.18;;;;;;;19.70;74.25;99700.19;5031357;28;20076;-69
2022/07/26 11:11:14;;;;;;;16.23;8.73;;;;;;;19.72;74.53;99703.59;5044493;28;20063;-69
2022/07/26 11:13:42;;;;;;;18.70;8.77;;;;;;;19.73;74.56;99706.09;5037897;28;20045;-68
2022/07/26 11:16:09;;;;;;;16.75;11.45;;;;;;;19.78;75.01;99702.19;5036803;28;20049;-72
2022/07/26 11:18:37;;;;;;;17.90;9.70;;;;;;;19.77;74.45;99706.69;5033685;28;20053;-69
2022/07/26 11:21:12;;;;;;;16.35;9.65;;;;;;;19.80;73.67;99706.41;5032784;28;20053;-70
2022/07/26 11:23:40;;;;;;;11.57;8.85;;;;;;;19.85;72.42;99706.00;5040917;28;20477;-71
2022/07/26 11:26:12;;;;;;;17.20;9.77;;;;;;;19.88;73.11;99708.41;5036633;28;20060;-70
2022/07/26 11:28:55;;;;;;;15.52;8.57;;;;;;;19.90;72.65;99711.78;5030908;28;20049;-70
2022/07/26 11:31:24;;;;;;;12.60;8.40;;;;;;;19.91;72.06;99710.78;5028253;28;20056;-69
2022/07/26 11:33:51;;;;;;;12.30;7.13;;;;;;;20.01;72.06;99713.50;5027755;28;20049;-69